createdAt,value
2016-10-18T00:00:29.670Z,930.42
2016-10-18T00:01:43.223Z,930.42
2016-10-18T00:02:56.850Z,930.4
2016-10-18T00:04:10.130Z,930.42
2016-10-18T00:05:23.706Z,930.38
2016-10-18T00:06:36.991Z,930.34
2016-10-18T00:07:50.561Z,930.37
2016-10-18T00:09:04.093Z,930.35
2016-10-18T00:10:17.859Z,930.36
2016-10-18T00:11:30.873Z,930.41
2016-10-18T00:12:44.419Z,930.4
2016-10-18T00:13:57.983Z,930.46
2016-10-18T00:15:11.555Z,930.46
2016-10-18T00:16:24.662Z,930.51
2016-10-18T00:17:37.776Z,930.54
2016-10-18T00:18:51.442Z,930.57
2016-10-18T00:20:05.097Z,930.6
2016-10-18T00:21:18.659Z,930.61
2016-10-18T00:22:31.165Z,930.66
2016-10-18T00:23:44.784Z,930.68
2016-10-18T00:24:58.416Z,930.77
2016-10-18T00:26:11.593Z,930.75
2016-10-18T00:27:24.659Z,930.79
2016-10-18T00:28:38.258Z,930.75
2016-10-18T00:29:51.278Z,930.7
2016-10-18T00:31:04.782Z,930.69
2016-10-18T00:32:17.542Z,930.73
2016-10-18T00:33:31.059Z,930.76
2016-10-18T00:34:44.624Z,930.75
2016-10-18T00:35:58.203Z,930.82
2016-10-18T00:37:11.225Z,930.85
2016-10-18T00:38:24.291Z,930.89
2016-10-18T00:39:37.853Z,930.96
2016-10-18T00:40:51.662Z,931.01
2016-10-18T00:42:05.267Z,931.05
2016-10-18T00:43:18.838Z,931.1
2016-10-18T00:44:31.849Z,931.13
2016-10-18T00:45:45.468Z,931.14
2016-10-18T00:46:59.089Z,931.18
2016-10-18T00:48:12.252Z,931.19
2016-10-18T00:49:25.826Z,931.23
2016-10-18T00:50:39.434Z,931.24
2016-10-18T00:51:52.947Z,931.29
2016-10-18T00:53:05.497Z,931.33
2016-10-18T00:54:18.965Z,931.38
2016-10-18T00:55:32.515Z,931.39
2016-10-18T00:56:46.067Z,931.41
2016-10-18T00:57:59.662Z,931.41
2016-10-18T00:59:13.227Z,931.39
2016-10-18T01:00:26.825Z,931.4
2016-10-18T01:01:40.447Z,931.43
2016-10-18T01:02:54.026Z,931.42
2016-10-18T01:04:07.618Z,931.48
2016-10-18T01:05:21.125Z,931.54
2016-10-18T01:06:34.768Z,931.59
2016-10-18T01:07:48.426Z,931.64
2016-10-18T01:09:01.515Z,931.66
2016-10-18T01:10:15.282Z,931.73
2016-10-18T01:11:28.795Z,931.77
2016-10-18T01:12:42.409Z,931.78
2016-10-18T01:13:55.985Z,931.77
2016-10-18T01:15:09.567Z,931.84
2016-10-18T01:16:22.647Z,931.79
2016-10-18T01:17:36.244Z,931.83
2016-10-18T01:18:49.539Z,931.8
2016-10-18T01:20:03.048Z,931.75
2016-10-18T01:21:16.677Z,931.66
2016-10-18T01:22:30.214Z,931.64
2016-10-18T01:23:43.760Z,931.68
2016-10-18T01:24:56.799Z,931.68
2016-10-18T01:26:10.356Z,931.71
2016-10-18T01:27:23.330Z,931.78
2016-10-18T01:28:36.948Z,931.79
2016-10-18T01:29:50.493Z,931.79
2016-10-18T01:31:04.036Z,931.81
2016-10-18T01:32:17.140Z,931.87
2016-10-18T01:33:30.728Z,931.83
2016-10-18T01:34:44.231Z,931.87
2016-10-18T01:35:57.284Z,931.9
2016-10-18T01:37:10.288Z,931.88
2016-10-18T01:38:23.856Z,931.9
2016-10-18T01:39:37.078Z,931.95
2016-10-18T01:40:50.125Z,932
2016-10-18T01:42:03.435Z,932.08
2016-10-18T01:43:16.527Z,932.11
2016-10-18T01:44:29.535Z,932.21
2016-10-18T01:45:42.829Z,932.21
2016-10-18T01:46:56.387Z,932.18
2016-10-18T01:48:10.011Z,932.16
2016-10-18T01:49:23.099Z,932.16
2016-10-18T01:50:36.223Z,932.09
2016-10-18T01:51:49.802Z,932.05
2016-10-18T01:53:03.328Z,932.06
2016-10-18T01:54:16.878Z,932.05
2016-10-18T01:55:29.920Z,932
2016-10-18T01:56:42.959Z,932.08
2016-10-18T01:57:55.936Z,932.07
2016-10-18T01:59:09.530Z,932.13
2016-10-18T02:00:23.283Z,932.04
2016-10-18T02:01:36.867Z,932.07
2016-10-18T02:02:50.398Z,932
2016-10-18T02:04:03.987Z,932.13
2016-10-18T02:05:17.006Z,932.16
2016-10-18T02:06:30.644Z,932.09
2016-10-18T02:07:44.216Z,932.11
2016-10-18T02:08:57.229Z,932.05
2016-10-18T02:10:10.777Z,932.04
2016-10-18T02:11:24.381Z,932.03
2016-10-18T02:12:37.403Z,932.03
2016-10-18T02:13:50.954Z,932.01
2016-10-18T02:15:03.683Z,931.93
2016-10-18T02:16:17.218Z,931.97
2016-10-18T02:17:30.772Z,931.96
2016-10-18T02:18:44.367Z,931.97
2016-10-18T02:19:57.422Z,931.96
2016-10-18T02:21:11.248Z,932.03
2016-10-18T02:22:24.497Z,932
2016-10-18T02:23:38.079Z,932.01
2016-10-18T02:24:51.776Z,932.03
2016-10-18T02:26:04.791Z,932.01
2016-10-18T02:27:18.128Z,932.07
2016-10-18T02:28:31.665Z,932.05
2016-10-18T02:29:45.017Z,932.12
2016-10-18T02:30:58.586Z,932.14
2016-10-18T02:32:11.628Z,932.09
2016-10-18T02:33:25.213Z,932.14
2016-10-18T02:34:38.212Z,932.16
2016-10-18T02:35:51.780Z,932.14
2016-10-18T02:37:04.562Z,932.12
2016-10-18T02:38:17.111Z,932.2
2016-10-18T02:39:30.397Z,932.15
2016-10-18T02:40:43.406Z,932.19
2016-10-18T02:41:56.425Z,932.15
2016-10-18T02:43:09.920Z,932.15
2016-10-18T02:44:23.519Z,932.14
2016-10-18T02:45:37.107Z,932.09
2016-10-18T02:46:50.610Z,932.09
2016-10-18T02:48:04.297Z,932.03
2016-10-18T02:49:16.807Z,932.03
2016-10-18T02:50:30.399Z,931.94
2016-10-18T02:51:44.138Z,931.95
2016-10-18T02:52:57.734Z,931.93
2016-10-18T02:54:11.363Z,931.97
2016-10-18T02:55:24.943Z,931.97
2016-10-18T02:56:38.553Z,932.01
2016-10-18T02:57:52.063Z,932
2016-10-18T02:59:05.651Z,931.99
2016-10-18T03:00:18.893Z,932.08
2016-10-18T03:01:32.480Z,932.09
2016-10-18T03:03:16.594Z,932.07
2016-10-18T03:04:30.234Z,932.06
2016-10-18T03:05:43.776Z,932.12
2016-10-18T03:06:57.347Z,932.05
2016-10-18T03:08:10.376Z,932.13
2016-10-18T03:09:23.946Z,932.2
2016-10-18T03:10:37.497Z,932.21
2016-10-18T03:11:50.534Z,932.26
2016-10-18T03:13:04.154Z,932.31
2016-10-18T03:14:17.735Z,932.32
2016-10-18T03:15:31.301Z,932.37
2016-10-18T03:16:44.324Z,932.4
2016-10-18T03:17:57.853Z,932.36
2016-10-18T03:19:11.420Z,932.31
2016-10-18T03:20:25.033Z,932.33
2016-10-18T03:21:38.615Z,932.32
2016-10-18T03:22:52.159Z,932.32
2016-10-18T03:24:05.339Z,932.31
2016-10-18T03:25:18.987Z,932.3
2016-10-18T03:26:32.237Z,932.3
2016-10-18T03:27:45.780Z,932.34
2016-10-18T03:28:59.482Z,932.28
2016-10-18T03:30:13.099Z,932.28
2016-10-18T03:31:26.156Z,932.23
2016-10-18T03:32:39.676Z,932.22
2016-10-18T03:33:53.228Z,932.23
2016-10-18T03:35:06.816Z,932.17
2016-10-18T03:36:20.439Z,932.17
2016-10-18T03:37:33.544Z,932.06
2016-10-18T03:38:47.102Z,932.06
2016-10-18T03:40:00.713Z,932.07
2016-10-18T03:41:14.295Z,932.09
2016-10-18T03:42:27.869Z,932.1
2016-10-18T03:43:41.455Z,932.08
2016-10-18T03:44:54.980Z,932
2016-10-18T03:46:08.599Z,931.96
2016-10-18T03:47:22.201Z,931.91
2016-10-18T03:48:35.778Z,931.91
2016-10-18T03:49:49.281Z,931.87
2016-10-18T03:51:02.916Z,931.9
2016-10-18T03:52:16.164Z,931.87
2016-10-18T03:53:29.735Z,931.9
2016-10-18T03:54:43.274Z,931.92
2016-10-18T03:55:56.818Z,931.93
2016-10-18T03:57:09.784Z,931.99
2016-10-18T03:58:23.319Z,932.01
2016-10-18T03:59:36.937Z,931.98
2016-10-18T04:00:50.501Z,931.9
2016-10-18T04:02:03.576Z,931.89
2016-10-18T04:03:17.066Z,931.84
2016-10-18T04:04:30.105Z,931.85
2016-10-18T04:05:43.618Z,931.85
2016-10-18T04:06:56.650Z,931.76
2016-10-18T04:08:09.193Z,931.68
2016-10-18T04:09:22.803Z,931.64
2016-10-18T04:10:36.363Z,931.63
2016-10-18T04:11:49.882Z,931.56
2016-10-18T04:13:02.877Z,931.52
2016-10-18T04:14:16.406Z,931.5
2016-10-18T04:15:29.497Z,931.53
2016-10-18T04:16:42.526Z,931.55
2016-10-18T04:17:55.553Z,931.52
2016-10-18T04:19:09.132Z,931.49
2016-10-18T04:20:22.704Z,931.49
2016-10-18T04:21:36.301Z,931.44
2016-10-18T04:22:49.624Z,931.45
2016-10-18T04:24:03.247Z,931.46
2016-10-18T04:25:16.843Z,931.45
2016-10-18T04:26:30.386Z,931.43
2016-10-18T04:27:43.466Z,931.46
2016-10-18T04:28:56.994Z,931.39
2016-10-18T04:30:10.558Z,931.33
2016-10-18T04:31:24.076Z,931.28
2016-10-18T04:32:37.705Z,931.3
2016-10-18T04:33:51.308Z,931.19
2016-10-18T04:35:04.860Z,931.21
2016-10-18T04:36:18.666Z,931.2
2016-10-18T04:37:32.207Z,931.22
2016-10-18T04:38:45.799Z,931.14
2016-10-18T04:39:59.395Z,931.08
2016-10-18T04:41:12.348Z,931.01
2016-10-18T04:42:25.859Z,930.93
2016-10-18T04:43:38.894Z,930.91
2016-10-18T04:44:52.388Z,930.91
2016-10-18T04:46:05.451Z,930.9
2016-10-18T04:47:19.064Z,930.82
2016-10-18T04:48:32.605Z,930.81
2016-10-18T04:49:46.137Z,930.8
2016-10-18T04:50:59.141Z,930.76
2016-10-18T04:52:12.667Z,930.72
2016-10-18T04:53:25.975Z,930.69
2016-10-18T04:54:39.015Z,930.62
2016-10-18T04:55:52.014Z,930.62
2016-10-18T04:57:05.030Z,930.62
2016-10-18T04:58:18.712Z,930.61
2016-10-18T04:59:31.788Z,930.58
2016-10-18T05:00:45.662Z,930.54
2016-10-18T05:01:58.675Z,930.55
2016-10-18T05:03:11.693Z,930.49
2016-10-18T05:04:24.269Z,930.47
2016-10-18T05:05:37.543Z,930.49
2016-10-18T05:06:50.527Z,930.51
2016-10-18T05:08:03.579Z,930.47
2016-10-18T05:09:17.216Z,930.5
2016-10-18T05:10:30.762Z,930.5
2016-10-18T05:11:43.789Z,930.51
2016-10-18T05:12:57.322Z,930.52
2016-10-18T05:14:11.064Z,930.5
2016-10-18T05:15:24.151Z,930.48
2016-10-18T05:16:37.720Z,930.45
2016-10-18T05:17:51.286Z,930.41
2016-10-18T05:19:04.823Z,930.37
2016-10-18T05:20:17.277Z,930.41
2016-10-18T05:21:30.832Z,930.4
2016-10-18T05:22:44.413Z,930.47
2016-10-18T05:23:57.468Z,930.48
2016-10-18T05:25:10.785Z,930.49
2016-10-18T05:26:24.310Z,930.5
2016-10-18T05:27:37.941Z,930.52
2016-10-18T05:28:51.617Z,930.52
2016-10-18T05:30:05.170Z,930.51
2016-10-18T05:31:18.776Z,930.43
2016-10-18T05:32:31.807Z,930.43
2016-10-18T05:33:45.584Z,930.44
2016-10-18T05:34:58.898Z,930.35
2016-10-18T05:36:12.013Z,930.34
2016-10-18T05:37:25.558Z,930.31
2016-10-18T05:38:38.557Z,930.26
2016-10-18T05:39:52.105Z,930.2
2016-10-18T05:41:05.146Z,930.23
2016-10-18T05:42:18.185Z,930.22
2016-10-18T05:43:31.294Z,930.25
2016-10-18T05:44:44.869Z,930.28
2016-10-18T05:45:58.404Z,930.28
2016-10-18T05:47:11.344Z,930.26
2016-10-18T05:48:24.962Z,930.29
2016-10-18T05:49:38.521Z,930.27
2016-10-18T05:50:51.877Z,930.23
2016-10-18T05:52:05.399Z,930.25
2016-10-18T05:53:18.913Z,930.23
2016-10-18T05:54:32.205Z,930.22
2016-10-18T05:55:45.238Z,930.23
2016-10-18T05:56:57.683Z,930.19
2016-10-18T05:58:11.432Z,930.21
2016-10-18T05:59:25.008Z,930.12
2016-10-18T06:00:38.520Z,930.11
2016-10-18T06:01:52.036Z,930.09
2016-10-18T06:03:05.064Z,930.07
2016-10-18T06:04:18.764Z,930.05
2016-10-18T06:05:32.409Z,930
2016-10-18T06:06:45.979Z,929.98
2016-10-18T06:07:59.078Z,929.91
2016-10-18T06:09:12.613Z,929.87
2016-10-18T06:10:25.632Z,929.82
2016-10-18T06:11:39.257Z,929.79
2016-10-18T06:12:52.803Z,929.77
2016-10-18T06:14:06.128Z,929.73
2016-10-18T06:15:19.116Z,929.72
2016-10-18T06:16:32.159Z,929.74
2016-10-18T06:17:45.664Z,929.72
2016-10-18T06:18:59.232Z,929.76
2016-10-18T06:20:12.391Z,929.77
2016-10-18T06:21:25.874Z,929.82
2016-10-18T06:22:38.863Z,929.81
2016-10-18T06:23:51.872Z,929.87
2016-10-18T06:25:04.379Z,929.85
2016-10-18T06:26:17.937Z,929.87
2016-10-18T06:27:30.999Z,929.89
2016-10-18T06:28:44.587Z,929.95
2016-10-18T06:29:58.180Z,929.89
2016-10-18T06:31:11.767Z,929.88
2016-10-18T06:32:24.834Z,929.86
2016-10-18T06:33:38.447Z,929.86
2016-10-18T06:34:52.005Z,929.86
2016-10-18T06:36:05.529Z,929.86
2016-10-18T06:37:18.833Z,929.84
2016-10-18T06:38:32.296Z,929.85
2016-10-18T06:39:45.931Z,929.79
2016-10-18T06:40:59.534Z,929.81
2016-10-18T06:42:13.108Z,929.79
2016-10-18T06:43:26.163Z,929.77
2016-10-18T06:44:39.774Z,929.74
2016-10-18T06:45:53.371Z,929.81
2016-10-18T06:47:06.864Z,929.87
2016-10-18T06:48:20.475Z,929.91
2016-10-18T06:49:33.456Z,929.89
2016-10-18T06:50:46.997Z,929.91
2016-10-18T06:52:00.597Z,929.97
2016-10-18T06:53:14.284Z,929.97
2016-10-18T06:54:27.843Z,929.96
2016-10-18T06:55:41.406Z,929.95
2016-10-18T06:56:54.503Z,929.89
2016-10-18T06:58:08.036Z,929.88
2016-10-18T06:59:21.265Z,929.86
2016-10-18T07:00:34.885Z,929.83
2016-10-18T07:01:48.696Z,929.85
2016-10-18T07:03:02.006Z,929.84
2016-10-18T07:04:15.634Z,929.82
2016-10-18T07:05:28.614Z,929.85
2016-10-18T07:06:42.173Z,929.88
2016-10-18T07:07:54.148Z,929.92
2016-10-18T07:09:07.683Z,929.85
2016-10-18T07:10:21.249Z,929.86
2016-10-18T07:11:34.800Z,929.82
2016-10-18T07:12:48.359Z,929.85
2016-10-18T07:14:01.919Z,929.83
2016-10-18T07:15:14.417Z,929.83
2016-10-18T07:16:27.908Z,929.8
2016-10-18T07:17:41.563Z,929.85
2016-10-18T07:18:55.375Z,929.89
2016-10-18T07:20:08.639Z,929.93
2016-10-18T07:21:22.160Z,929.93
2016-10-18T07:22:35.498Z,929.95
2016-10-18T07:23:49.088Z,929.94
2016-10-18T07:25:02.630Z,929.98
2016-10-18T07:26:16.225Z,929.96
2016-10-18T07:27:29.796Z,929.95
2016-10-18T07:28:43.017Z,929.93
2016-10-18T07:29:56.040Z,929.95
2016-10-18T07:31:09.295Z,929.96
2016-10-18T07:32:22.832Z,929.97
2016-10-18T07:33:35.886Z,929.96
2016-10-18T07:34:49.427Z,930.02
2016-10-18T07:36:02.458Z,930.04
2016-10-18T07:37:16.000Z,929.99
2016-10-18T07:38:29.025Z,930
2016-10-18T07:39:42.694Z,930.04
2016-10-18T07:40:56.241Z,930
2016-10-18T07:42:09.813Z,929.99
2016-10-18T07:43:23.103Z,929.99
2016-10-18T07:44:36.683Z,929.99
2016-10-18T07:45:49.653Z,930.01
2016-10-18T07:47:03.184Z,930
2016-10-18T07:48:16.810Z,930.02
2016-10-18T07:49:30.353Z,930.04
2016-10-18T07:50:43.961Z,930.03
2016-10-18T07:51:57.537Z,930.01
2016-10-18T07:53:10.523Z,930.01
2016-10-18T07:54:23.793Z,929.98
2016-10-18T07:55:36.827Z,929.98
2016-10-18T07:56:50.407Z,929.95
2016-10-18T07:58:02.841Z,930
2016-10-18T07:59:16.504Z,929.96
2016-10-18T08:00:30.045Z,929.94
2016-10-18T08:01:43.050Z,929.96
2016-10-18T08:02:56.025Z,929.96
2016-10-18T08:04:09.604Z,929.95
2016-10-18T08:05:23.235Z,929.95
2016-10-18T08:06:36.830Z,929.96
2016-10-18T08:07:49.873Z,929.96
2016-10-18T08:09:03.440Z,929.93
2016-10-18T08:10:16.523Z,929.94
2016-10-18T08:11:29.536Z,929.89
2016-10-18T08:12:43.025Z,929.84
2016-10-18T08:13:56.114Z,929.83
2016-10-18T08:15:09.673Z,929.79
2016-10-18T08:16:23.306Z,929.86
2016-10-18T08:17:36.877Z,929.87
2016-10-18T08:18:49.990Z,929.88
2016-10-18T08:20:03.551Z,929.86
2016-10-18T08:21:16.631Z,929.86
2016-10-18T08:22:30.306Z,929.91
2016-10-18T08:23:43.868Z,929.91
2016-10-18T08:25:28.527Z,929.9
2016-10-18T08:26:42.094Z,929.91
2016-10-18T08:27:55.626Z,929.93
2016-10-18T08:29:09.208Z,929.92
2016-10-18T08:30:22.258Z,929.93
2016-10-18T08:31:35.810Z,929.98
2016-10-18T08:32:49.346Z,929.99
2016-10-18T08:34:33.726Z,929.99
2016-10-18T08:35:47.220Z,929.97
2016-10-18T08:37:00.303Z,929.98
2016-10-18T08:38:13.835Z,929.94
2016-10-18T08:39:26.858Z,929.92
2016-10-18T08:40:40.464Z,929.91
2016-10-18T08:41:54.057Z,929.88
2016-10-18T08:43:07.164Z,929.86
2016-10-18T08:44:20.785Z,929.82
2016-10-18T08:45:34.364Z,929.85
2016-10-18T08:46:47.953Z,929.81
2016-10-18T08:48:01.497Z,929.78
2016-10-18T08:49:15.069Z,929.79
2016-10-18T08:50:28.655Z,929.73
2016-10-18T08:51:42.304Z,929.75
2016-10-18T08:52:55.637Z,929.74
2016-10-18T08:54:09.220Z,929.73
2016-10-18T08:55:22.247Z,929.71
2016-10-18T08:56:35.222Z,929.65
2016-10-18T08:57:48.928Z,929.73
2016-10-18T08:59:02.231Z,929.7
2016-10-18T09:00:15.778Z,929.64
2016-10-18T09:01:29.372Z,929.62
2016-10-18T09:02:42.904Z,929.65
2016-10-18T09:03:56.487Z,929.66
2016-10-18T09:05:10.057Z,929.64
2016-10-18T09:06:23.698Z,929.6
2016-10-18T09:07:37.306Z,929.62
2016-10-18T09:08:50.819Z,929.62
2016-10-18T09:10:04.384Z,929.6
2016-10-18T09:11:17.424Z,929.58
2016-10-18T09:12:30.455Z,929.61
2016-10-18T09:13:43.978Z,929.6
2016-10-18T09:14:57.279Z,929.58
2016-10-18T09:16:10.897Z,929.55
2016-10-18T09:17:24.479Z,929.59
2016-10-18T09:18:38.118Z,929.64
2016-10-18T09:19:52.175Z,929.67
2016-10-18T09:21:05.260Z,929.65
2016-10-18T09:22:18.840Z,929.68
2016-10-18T09:23:32.452Z,929.72
2016-10-18T09:24:45.676Z,929.79
2016-10-18T09:25:59.242Z,929.79
2016-10-18T09:27:11.795Z,929.85
2016-10-18T09:28:25.413Z,929.87
2016-10-18T09:29:38.976Z,929.86
2016-10-18T09:30:52.484Z,929.88
2016-10-18T09:32:06.065Z,929.8
2016-10-18T09:33:19.735Z,929.77
2016-10-18T09:34:33.042Z,929.74
2016-10-18T09:35:46.602Z,929.68
2016-10-18T09:36:59.621Z,929.66
2016-10-18T09:38:12.747Z,929.67
2016-10-18T09:39:26.380Z,929.67
2016-10-18T09:40:39.417Z,929.66
2016-10-18T09:41:52.572Z,929.67
2016-10-18T09:43:06.204Z,929.62
2016-10-18T09:44:19.181Z,929.65
2016-10-18T09:45:32.743Z,929.63
2016-10-18T09:46:46.274Z,929.59
2016-10-18T09:47:59.807Z,929.61
2016-10-18T09:49:12.855Z,929.62
2016-10-18T09:50:26.343Z,929.64
2016-10-18T09:51:38.835Z,929.62
2016-10-18T09:52:52.404Z,929.59
2016-10-18T09:54:05.964Z,929.64
2016-10-18T09:55:18.985Z,929.59
2016-10-18T09:56:32.027Z,929.6
2016-10-18T09:57:45.732Z,929.6
2016-10-18T09:58:59.055Z,929.65
2016-10-18T10:00:12.640Z,929.65
2016-10-18T10:01:26.159Z,929.61
2016-10-18T10:02:39.718Z,929.65
2016-10-18T10:03:52.767Z,929.66
2016-10-18T10:05:06.337Z,929.66
2016-10-18T10:06:19.915Z,929.71
2016-10-18T10:07:32.890Z,929.71
2016-10-18T10:08:46.468Z,929.73
2016-10-18T10:10:00.049Z,929.76
2016-10-18T10:11:13.147Z,929.75
2016-10-18T10:12:26.707Z,929.72
2016-10-18T10:13:39.937Z,929.72
2016-10-18T10:14:52.991Z,929.69
2016-10-18T10:16:06.620Z,929.69
2016-10-18T10:17:19.670Z,929.72
2016-10-18T10:18:32.678Z,929.66
2016-10-18T10:19:46.276Z,929.68
2016-10-18T10:20:58.817Z,929.65
2016-10-18T10:22:11.836Z,929.66
2016-10-18T10:23:24.843Z,929.7
2016-10-18T10:24:37.340Z,929.7
2016-10-18T10:25:50.943Z,929.67
2016-10-18T10:27:04.462Z,929.69
2016-10-18T10:28:18.024Z,929.71
2016-10-18T10:29:31.539Z,929.7
2016-10-18T10:30:44.554Z,929.69
2016-10-18T10:31:58.116Z,929.7
2016-10-18T10:33:11.104Z,929.66
2016-10-18T10:34:24.658Z,929.69
2016-10-18T10:35:37.674Z,929.69
2016-10-18T10:36:51.218Z,929.69
2016-10-18T10:38:04.730Z,929.69
2016-10-18T10:39:18.290Z,929.73
2016-10-18T10:40:32.252Z,929.78
2016-10-18T10:41:45.802Z,929.74
2016-10-18T10:42:58.817Z,929.79
2016-10-18T10:44:12.384Z,929.79
2016-10-18T10:45:25.926Z,929.83
2016-10-18T10:46:38.689Z,929.85
2016-10-18T10:47:52.248Z,929.85
2016-10-18T10:49:05.281Z,929.87
2016-10-18T10:50:18.552Z,929.84
2016-10-18T10:51:32.056Z,929.88
2016-10-18T10:52:45.902Z,929.86
2016-10-18T10:53:58.890Z,929.91
2016-10-18T10:55:12.650Z,929.9
2016-10-18T10:56:26.226Z,929.88
2016-10-18T10:57:39.236Z,929.86
2016-10-18T10:58:52.822Z,929.85
2016-10-18T11:00:06.613Z,929.79
2016-10-18T11:01:20.175Z,929.82
2016-10-18T11:02:33.718Z,929.81
2016-10-18T11:03:47.298Z,929.78
2016-10-18T11:05:00.814Z,929.79
2016-10-18T11:06:14.584Z,929.78
2016-10-18T11:07:27.661Z,929.78
2016-10-18T11:08:41.206Z,929.77
2016-10-18T11:09:55.098Z,929.8
2016-10-18T11:11:08.666Z,929.78
2016-10-18T11:12:21.926Z,929.78
2016-10-18T11:13:35.328Z,929.79
2016-10-18T11:14:48.887Z,929.8
2016-10-18T11:16:02.417Z,929.73
2016-10-18T11:17:15.909Z,929.7
2016-10-18T11:18:28.883Z,929.75
2016-10-18T11:19:42.740Z,929.73
2016-10-18T11:20:55.747Z,929.75
2016-10-18T11:22:09.060Z,929.69
2016-10-18T11:23:22.641Z,929.67
2016-10-18T11:24:35.887Z,929.64
2016-10-18T11:25:49.583Z,929.66
2016-10-18T11:27:03.173Z,929.66
2016-10-18T11:28:16.664Z,929.67
2016-10-18T11:29:30.218Z,929.65
2016-10-18T11:30:43.811Z,929.66
2016-10-18T11:31:57.337Z,929.73
2016-10-18T11:33:10.868Z,929.68
2016-10-18T11:34:23.879Z,929.68
2016-10-18T11:35:36.872Z,929.68
2016-10-18T11:36:50.449Z,929.77
2016-10-18T11:38:03.918Z,929.77
2016-10-18T11:39:17.472Z,929.75
2016-10-18T11:40:31.064Z,929.74
2016-10-18T11:41:44.648Z,929.73
2016-10-18T11:42:58.193Z,929.77
2016-10-18T11:44:11.230Z,929.81
2016-10-18T11:45:25.048Z,929.82
2016-10-18T11:46:38.625Z,929.77
2016-10-18T11:47:51.698Z,929.72
2016-10-18T11:49:04.428Z,929.77
2016-10-18T11:50:16.907Z,929.82
2016-10-18T11:51:29.433Z,929.88
2016-10-18T11:52:42.739Z,929.83
2016-10-18T11:53:56.387Z,929.88
2016-10-18T11:55:10.060Z,929.89
2016-10-18T11:56:23.539Z,929.91
2016-10-18T11:57:37.107Z,929.92
2016-10-18T11:58:50.623Z,929.98
2016-10-18T12:00:04.165Z,929.96
2016-10-18T12:01:17.959Z,929.91
2016-10-18T12:02:31.576Z,929.95
2016-10-18T12:03:45.198Z,929.97
2016-10-18T12:04:58.132Z,929.94
2016-10-18T12:06:11.760Z,930.02
2016-10-18T12:07:25.290Z,929.92
2016-10-18T12:08:38.735Z,929.91
2016-10-18T12:09:52.350Z,929.96
2016-10-18T12:11:05.459Z,929.94
2016-10-18T12:12:19.098Z,929.97
2016-10-18T12:13:32.708Z,929.94
2016-10-18T12:14:46.227Z,929.97
2016-10-18T12:15:59.871Z,930.04
2016-10-18T12:17:13.410Z,930.07
2016-10-18T12:18:26.950Z,930.08
2016-10-18T12:19:40.495Z,930.08
2016-10-18T12:20:54.066Z,930.06
2016-10-18T12:22:07.624Z,930.01
2016-10-18T12:23:20.131Z,929.99
2016-10-18T12:24:33.769Z,929.97
2016-10-18T12:25:46.877Z,929.94
2016-10-18T12:26:59.935Z,929.95
2016-10-18T12:28:13.536Z,929.99
2016-10-18T12:29:27.197Z,929.89
2016-10-18T12:30:40.679Z,929.93
2016-10-18T12:31:54.344Z,929.98
2016-10-18T12:33:07.960Z,929.97
2016-10-18T12:34:21.269Z,929.97
2016-10-18T12:35:34.879Z,930
2016-10-18T12:36:48.469Z,930.02
2016-10-18T12:38:02.121Z,930.07
2016-10-18T12:39:15.827Z,930.05
2016-10-18T12:40:28.857Z,930.11
2016-10-18T12:41:41.915Z,930.06
2016-10-18T12:42:55.066Z,930.02
2016-10-18T12:44:08.605Z,930.03
2016-10-18T12:45:22.179Z,930.04
2016-10-18T12:46:35.204Z,930.04
2016-10-18T12:47:48.497Z,930.03
2016-10-18T12:49:01.490Z,930.02
2016-10-18T12:50:13.977Z,930.03
2016-10-18T12:51:27.524Z,929.98
2016-10-18T12:52:41.044Z,929.94
2016-10-18T12:53:54.646Z,929.91
2016-10-18T12:55:07.726Z,929.93
2016-10-18T12:56:20.206Z,929.89
2016-10-18T12:57:33.733Z,929.91
2016-10-18T12:58:47.205Z,929.9
2016-10-18T13:00:00.791Z,929.8
2016-10-18T13:01:14.573Z,929.84
2016-10-18T13:02:28.127Z,929.85
2016-10-18T13:03:41.691Z,929.85
2016-10-18T13:04:55.221Z,929.8
2016-10-18T13:06:07.689Z,929.77
2016-10-18T13:07:21.347Z,929.77
2016-10-18T13:08:34.941Z,929.78
2016-10-18T13:09:47.783Z,929.79
2016-10-18T13:11:00.772Z,929.77
2016-10-18T13:12:14.717Z,929.78
2016-10-18T13:13:27.211Z,929.78
2016-10-18T13:14:40.535Z,929.75
2016-10-18T13:15:53.536Z,929.75
2016-10-18T13:17:06.026Z,929.76
2016-10-18T13:18:18.987Z,929.77
2016-10-18T13:19:32.517Z,929.83
2016-10-18T13:20:45.909Z,929.81
2016-10-18T13:21:59.439Z,929.8
2016-10-18T13:23:12.991Z,929.87
2016-10-18T13:24:26.697Z,929.77
2016-10-18T13:25:39.714Z,929.8
2016-10-18T13:26:52.667Z,929.76
2016-10-18T13:28:05.695Z,929.77
2016-10-18T13:29:19.260Z,929.77
2016-10-18T13:30:32.286Z,929.73
2016-10-18T13:31:46.113Z,929.78
2016-10-18T13:32:59.378Z,929.75
2016-10-18T13:34:12.539Z,929.74
2016-10-18T13:35:26.136Z,929.73
2016-10-18T13:36:39.678Z,929.75
2016-10-18T13:37:52.688Z,929.69
2016-10-18T13:39:06.314Z,929.75
2016-10-18T13:40:19.886Z,929.74
2016-10-18T13:41:33.485Z,929.81
2016-10-18T13:42:47.046Z,929.77
2016-10-18T13:44:00.631Z,929.76
2016-10-18T13:45:14.268Z,929.8
2016-10-18T13:46:27.836Z,929.76
2016-10-18T13:47:40.341Z,929.76
2016-10-18T13:48:53.373Z,929.69
2016-10-18T13:50:06.416Z,929.71
2016-10-18T13:51:19.986Z,929.78
2016-10-18T13:52:33.626Z,929.77
2016-10-18T13:53:47.176Z,929.78
2016-10-18T13:55:00.844Z,929.64
2016-10-18T13:56:14.178Z,929.65
2016-10-18T13:57:27.247Z,929.65
2016-10-18T13:58:40.773Z,929.65
2016-10-18T13:59:54.337Z,929.62
2016-10-18T14:01:07.847Z,929.55
2016-10-18T14:02:22.154Z,929.54
2016-10-18T14:03:35.778Z,929.53
2016-10-18T14:04:49.327Z,929.55
2016-10-18T14:06:02.931Z,929.55
2016-10-18T14:07:16.061Z,929.6
2016-10-18T14:08:29.619Z,929.52
2016-10-18T14:09:43.238Z,929.56
2016-10-18T14:10:56.856Z,929.48
2016-10-18T14:12:10.378Z,929.43
2016-10-18T14:13:23.919Z,929.48
2016-10-18T14:14:37.484Z,929.44
2016-10-18T14:15:51.078Z,929.45
2016-10-18T14:17:04.164Z,929.5
2016-10-18T14:18:17.230Z,929.44
2016-10-18T14:19:30.754Z,929.45
2016-10-18T14:20:44.303Z,929.42
2016-10-18T14:21:57.857Z,929.36
2016-10-18T14:23:11.418Z,929.38
2016-10-18T14:24:24.605Z,929.32
2016-10-18T14:25:38.165Z,929.39
2016-10-18T14:26:51.735Z,929.37
2016-10-18T14:28:04.322Z,929.4
2016-10-18T14:29:17.924Z,929.34
2016-10-18T14:30:31.023Z,929.35
2016-10-18T14:31:44.578Z,929.31
2016-10-18T14:32:58.152Z,929.38
2016-10-18T14:34:11.981Z,929.32
2016-10-18T14:35:25.510Z,929.41
2016-10-18T14:36:39.049Z,929.41
2016-10-18T14:37:52.629Z,929.33
2016-10-18T14:39:06.207Z,929.34
2016-10-18T14:40:19.547Z,929.33
2016-10-18T14:41:32.561Z,929.3
2016-10-18T14:42:46.290Z,929.28
2016-10-18T14:43:59.910Z,929.28
2016-10-18T14:45:13.480Z,929.25
2016-10-18T14:46:26.986Z,929.21
2016-10-18T14:47:40.012Z,929.24
2016-10-18T14:48:52.498Z,929.25
2016-10-18T14:50:06.023Z,929.2
2016-10-18T14:51:18.953Z,929.12
2016-10-18T14:52:32.497Z,929.23
2016-10-18T14:53:45.547Z,929.09
2016-10-18T14:54:59.125Z,929.1
2016-10-18T14:56:13.099Z,929.05
2016-10-18T14:57:26.685Z,928.98
2016-10-18T14:58:40.284Z,928.97
2016-10-18T14:59:53.794Z,928.99
2016-10-18T15:01:07.451Z,928.95
2016-10-18T15:02:21.137Z,928.95
2016-10-18T15:03:34.779Z,929.09
2016-10-18T15:04:48.289Z,928.97
2016-10-18T15:06:01.871Z,928.91
2016-10-18T15:07:15.501Z,928.99
2016-10-18T15:08:29.089Z,928.99
2016-10-18T15:09:43.066Z,928.94
2016-10-18T15:10:56.659Z,928.86
2016-10-18T15:12:09.750Z,928.87
2016-10-18T15:13:22.830Z,928.84
2016-10-18T15:14:36.438Z,928.8
2016-10-18T15:15:50.196Z,928.75
2016-10-18T15:17:03.333Z,928.72
2016-10-18T15:18:16.842Z,928.77
2016-10-18T15:19:30.471Z,928.75
2016-10-18T15:20:44.062Z,928.8